createdAt,value
2022-10-13T04:01:02.634Z,4.10
2022-10-13T04:02:02.436Z,4.90
2022-10-13T04:03:02.391Z,4.60
2022-10-13T04:04:02.388Z,4.00
2022-10-13T04:05:02.359Z,4.60
2022-10-13T04:06:02.310Z,4.40
2022-10-13T04:07:02.342Z,5.20
2022-10-13T04:08:02.281Z,3.40
2022-10-13T04:09:02.308Z,5.30
2022-10-13T04:10:02.289Z,4.30
2022-10-13T04:11:02.251Z,5.60
2022-10-13T04:12:02.300Z,5.00
2022-10-13T04:13:02.409Z,3.10
2022-10-13T04:14:02.309Z,4.90
2022-10-13T04:15:09.209Z,3.40
2022-10-13T04:16:02.183Z,5.50
2022-10-13T04:17:02.168Z,5.30
2022-10-13T04:18:02.154Z,3.90
2022-10-13T04:19:02.202Z,5.00
2022-10-13T04:20:02.125Z,8.00
2022-10-13T04:21:02.105Z,4.40
2022-10-13T04:22:02.112Z,4.50
2022-10-13T04:23:02.085Z,4.30
2022-10-13T04:24:02.079Z,3.50
2022-10-13T04:25:02.215Z,5.50
2022-10-13T04:26:02.120Z,4.30
2022-10-13T04:27:02.022Z,5.40
2022-10-13T04:28:02.031Z,5.70
2022-10-13T04:29:02.001Z,5.30
2022-10-13T04:30:02.005Z,4.60
2022-10-13T04:31:02.042Z,4.30
2022-10-13T04:32:01.961Z,4.30
2022-10-13T04:33:01.970Z,5.00
2022-10-13T04:34:01.941Z,4.00
2022-10-13T04:35:01.921Z,4.20
2022-10-13T04:36:01.918Z,4.50
2022-10-13T04:37:01.941Z,3.60
2022-10-13T04:38:01.891Z,5.00
2022-10-13T04:39:01.878Z,3.00
2022-10-13T04:40:01.865Z,4.10
2022-10-13T04:41:01.849Z,4.10
2022-10-13T04:42:01.838Z,4.20
2022-10-13T04:43:01.872Z,4.70
2022-10-13T04:44:01.815Z,3.60
2022-10-13T04:45:01.851Z,3.80
2022-10-13T04:46:01.786Z,3.60
2022-10-13T04:47:01.776Z,5.00
2022-10-13T04:48:01.822Z,3.90
2022-10-13T04:49:01.829Z,4.00
2022-10-13T04:50:01.789Z,4.20
2022-10-13T04:51:01.716Z,4.90
2022-10-13T04:52:01.715Z,5.80
2022-10-13T04:53:01.695Z,3.50
2022-10-13T04:54:01.687Z,4.30
2022-10-13T04:55:01.735Z,4.30
2022-10-13T04:56:01.672Z,4.10
2022-10-13T04:57:01.647Z,4.30
2022-10-13T04:58:01.635Z,3.60
2022-10-13T04:59:01.623Z,4.60
2022-10-13T05:00:01.656Z,3.70
2022-10-13T05:01:01.915Z,4.30
2022-10-13T05:02:01.574Z,4.50
2022-10-13T05:03:01.562Z,4.80
2022-10-13T05:04:01.574Z,4.50
2022-10-13T05:05:01.542Z,3.90
2022-10-13T05:06:01.535Z,4.00
2022-10-13T05:07:18.023Z,3.80
2022-10-13T05:08:02.503Z,4.50
2022-10-13T05:09:01.482Z,4.10
2022-10-13T05:10:01.471Z,4.10
2022-10-13T05:11:01.463Z,4.50
2022-10-13T05:12:01.441Z,3.30
2022-10-13T05:13:01.571Z,3.90
2022-10-13T05:14:01.430Z,4.50
2022-10-13T05:15:01.444Z,4.60
2022-10-13T05:16:01.389Z,4.10
2022-10-13T05:17:01.380Z,5.00
2022-10-13T05:18:01.373Z,5.20
2022-10-13T05:19:01.409Z,6.00
2022-10-13T05:20:01.339Z,3.40
2022-10-13T05:21:01.330Z,4.70
2022-10-13T05:22:01.309Z,4.90
2022-10-13T05:23:01.318Z,4.50
2022-10-13T05:24:01.295Z,5.00
2022-10-13T05:25:01.327Z,4.40
2022-10-13T05:26:01.266Z,7.20
2022-10-13T05:27:01.258Z,6.70
2022-10-13T05:28:01.245Z,6.00
2022-10-13T05:29:01.228Z,6.00
2022-10-13T05:30:01.216Z,6.40
2022-10-13T05:31:01.238Z,5.00
2022-10-13T05:32:01.196Z,4.10
2022-10-13T05:33:01.178Z,4.30
2022-10-13T05:34:01.169Z,5.20
2022-10-13T05:35:01.155Z,6.30
2022-10-13T05:36:01.135Z,5.30
2022-10-13T05:37:01.289Z,5.90
2022-10-13T05:38:01.112Z,4.60
2022-10-13T05:39:01.106Z,3.60
2022-10-13T05:40:01.083Z,6.10
2022-10-13T05:41:01.072Z,4.50
2022-10-13T05:42:01.065Z,4.30
2022-10-13T05:43:01.103Z,5.30
2022-10-13T05:44:01.133Z,3.40
2022-10-13T05:45:01.119Z,4.60
2022-10-13T05:46:01.403Z,4.80
2022-10-13T05:47:06.517Z,4.30
2022-10-13T05:48:02.042Z,5.30
2022-10-13T05:49:00.963Z,4.30
2022-10-13T05:50:00.960Z,4.80
2022-10-13T05:51:00.941Z,3.40
2022-10-13T05:52:00.930Z,3.40
2022-10-13T05:53:00.911Z,3.30
2022-10-13T05:54:00.980Z,4.50
2022-10-13T05:55:00.890Z,3.80
2022-10-13T05:56:00.880Z,4.50
2022-10-13T05:57:00.895Z,5.10
2022-10-13T05:58:00.908Z,4.40
2022-10-13T05:59:00.839Z,5.40
2022-10-13T06:00:00.889Z,4.50
2022-10-13T06:01:00.811Z,4.70
2022-10-13T06:02:00.810Z,5.70
2022-10-13T06:03:00.792Z,3.10
2022-10-13T06:04:00.775Z,5.20
2022-10-13T06:05:00.758Z,4.90
2022-10-13T06:06:00.789Z,4.90
2022-10-13T06:07:00.783Z,5.40
2022-10-13T06:08:00.729Z,4.70
2022-10-13T06:09:00.716Z,5.20
2022-10-13T06:10:00.706Z,5.60
2022-10-13T06:11:00.686Z,5.80
2022-10-13T06:12:00.749Z,4.60
2022-10-13T06:13:00.656Z,4.70
2022-10-13T06:14:00.648Z,4.10
2022-10-13T06:15:00.627Z,4.40
2022-10-13T06:16:00.625Z,3.50
2022-10-13T06:17:00.607Z,4.20
2022-10-13T06:18:00.917Z,3.70
2022-10-13T06:19:00.582Z,3.50
2022-10-13T06:20:00.605Z,3.20
2022-10-13T06:21:00.556Z,4.10
2022-10-13T06:22:03.534Z,3.50
2022-10-13T06:23:00.534Z,3.60
2022-10-13T06:24:00.551Z,3.20
2022-10-13T06:25:00.533Z,3.70
2022-10-13T06:26:00.544Z,3.10
2022-10-13T06:27:00.483Z,3.30
2022-10-13T06:28:00.479Z,4.40
2022-10-13T06:29:00.576Z,2.90
2022-10-13T06:30:00.444Z,4.10
2022-10-13T06:31:00.425Z,3.10
2022-10-13T06:32:00.496Z,3.90
2022-10-13T06:33:00.400Z,4.50
2022-10-13T06:34:00.393Z,3.80
2022-10-13T06:35:00.375Z,4.90
2022-10-13T06:36:00.362Z,4.10
2022-10-13T06:37:00.351Z,3.70
2022-10-13T06:38:00.380Z,4.00
2022-10-13T06:39:00.328Z,5.30
2022-10-13T06:40:00.309Z,3.40
2022-10-13T06:41:00.303Z,4.20
2022-10-13T06:42:00.289Z,3.40
2022-10-13T06:43:00.278Z,3.20
2022-10-13T06:44:00.304Z,4.40
2022-10-13T06:45:00.249Z,3.60
2022-10-13T06:46:00.521Z,4.30
2022-10-13T06:47:00.220Z,4.90
2022-10-13T06:48:00.200Z,4.50
2022-10-13T06:49:00.188Z,4.80
2022-10-13T06:50:00.187Z,4.70
2022-10-13T06:51:00.169Z,6.10
2022-10-13T06:52:00.239Z,5.30
2022-10-13T06:53:00.140Z,4.20
2022-10-13T06:54:00.137Z,4.40
2022-10-13T06:55:00.137Z,4.90
2022-10-13T06:56:00.111Z,3.70
2022-10-13T06:57:00.088Z,4.30
2022-10-13T06:58:00.130Z,4.10
2022-10-13T06:59:00.063Z,4.40
2022-10-13T07:00:00.056Z,3.60
2022-10-13T07:01:00.175Z,4.10
2022-10-13T07:02:00.043Z,4.40
2022-10-13T07:03:00.015Z,4.70
2022-10-13T07:04:00.036Z,5.10
2022-10-13T07:04:59.985Z,6.10
2022-10-13T07:05:59.975Z,5.40
2022-10-13T07:07:00.077Z,5.80
2022-10-13T07:07:59.947Z,4.00
2022-10-13T07:08:59.938Z,3.40
2022-10-13T07:09:59.916Z,4.50
2022-10-13T07:10:59.904Z,4.60
2022-10-13T07:11:59.884Z,5.20
2022-10-13T07:12:59.964Z,4.70
2022-10-13T07:14:02.498Z,4.40
2022-10-13T07:14:59.853Z,4.20
2022-10-13T07:15:59.843Z,4.10
2022-10-13T07:16:59.827Z,3.90
2022-10-13T07:17:59.805Z,4.70
2022-10-13T07:18:59.870Z,4.40
2022-10-13T07:20:03.591Z,4.50
2022-10-13T07:21:00.770Z,5.00
2022-10-13T07:21:59.827Z,3.90
2022-10-13T07:22:59.732Z,4.90
2022-10-13T07:23:59.731Z,5.40
2022-10-13T07:24:59.773Z,5.00
2022-10-13T07:25:59.691Z,4.30
2022-10-13T07:27:03.895Z,4.50
2022-10-13T07:28:00.671Z,4.60
2022-10-13T07:28:59.738Z,4.80
2022-10-13T07:29:59.641Z,4.00
2022-10-13T07:30:59.658Z,5.00
2022-10-13T07:31:59.701Z,3.90
2022-10-13T07:32:59.610Z,4.50
2022-10-13T07:33:59.589Z,4.50
2022-10-13T07:34:59.570Z,5.00
2022-10-13T07:35:59.551Z,4.60
2022-10-13T07:36:59.550Z,5.20
2022-10-13T07:37:59.647Z,4.70
2022-10-13T07:38:59.521Z,4.30
2022-10-13T07:39:59.499Z,4.80
2022-10-13T07:40:59.491Z,3.70
2022-10-13T07:41:59.469Z,4.30
2022-10-13T07:42:59.458Z,4.80
2022-10-13T07:43:59.501Z,6.20
2022-10-13T07:44:59.436Z,4.80
2022-10-13T07:45:59.416Z,4.90
2022-10-13T07:46:59.420Z,4.40
2022-10-13T07:47:59.400Z,7.70
2022-10-13T07:48:59.398Z,5.70
2022-10-13T07:49:59.416Z,4.60
2022-10-13T07:50:59.358Z,5.30
2022-10-13T07:51:59.336Z,4.00
2022-10-13T07:52:59.409Z,4.30
2022-10-13T07:53:59.307Z,5.80
2022-10-13T07:54:59.306Z,3.40
2022-10-13T07:55:59.326Z,5.90
2022-10-13T07:56:59.275Z,4.80
2022-10-13T07:57:59.256Z,4.00
2022-10-13T07:58:59.256Z,4.60
2022-10-13T07:59:59.235Z,4.80
2022-10-13T08:00:59.554Z,5.40
2022-10-13T08:01:59.254Z,5.00
2022-10-13T08:02:59.249Z,4.00
2022-10-13T08:03:59.186Z,3.90
2022-10-13T08:04:59.174Z,5.40
2022-10-13T08:05:59.165Z,4.50
2022-10-13T08:06:59.213Z,4.20
2022-10-13T08:07:59.134Z,3.90
2022-10-13T08:08:59.123Z,4.90
2022-10-13T08:09:59.102Z,4.80
2022-10-13T08:10:59.094Z,4.70
2022-10-13T08:12:00.774Z,4.00
2022-10-13T08:12:59.119Z,4.00
2022-10-13T08:13:59.044Z,4.20
2022-10-13T08:15:01.810Z,4.30
2022-10-13T08:16:00.056Z,4.00
2022-10-13T08:16:59.024Z,4.20
2022-10-13T08:17:59.002Z,4.10
2022-10-13T08:18:59.032Z,3.70
2022-10-13T08:19:58.976Z,4.50
2022-10-13T08:21:23.947Z,4.90
2022-10-13T08:22:00.406Z,4.20
2022-10-13T08:22:58.942Z,4.50
2022-10-13T08:23:58.914Z,4.20
2022-10-13T08:24:59.001Z,5.10
2022-10-13T08:25:58.893Z,3.50
2022-10-13T08:26:58.881Z,4.80
2022-10-13T08:28:00.579Z,4.50
2022-10-13T08:29:20.934Z,5.10
2022-10-13T08:29:59.943Z,4.30
2022-10-13T08:30:58.980Z,5.50
2022-10-13T08:31:58.810Z,5.30
2022-10-13T08:32:58.800Z,4.50
2022-10-13T08:33:58.782Z,4.00
2022-10-13T08:34:58.772Z,3.60
2022-10-13T08:35:58.810Z,3.30
2022-10-13T08:36:58.751Z,3.70
2022-10-13T08:37:58.730Z,3.80
2022-10-13T08:38:58.726Z,5.30
2022-10-13T08:39:58.700Z,6.10
2022-10-13T08:40:58.710Z,4.70
2022-10-13T08:41:58.719Z,4.40
2022-10-13T08:43:00.595Z,4.50
2022-10-13T08:44:33.935Z,5.50
2022-10-13T08:45:22.291Z,4.50
2022-10-13T08:45:59.628Z,5.30
2022-10-13T08:46:58.617Z,3.70
2022-10-13T08:47:58.677Z,5.00
2022-10-13T08:48:58.588Z,3.90
2022-10-13T08:50:00.473Z,5.70
2022-10-13T08:50:58.569Z,4.20
2022-10-13T08:51:58.552Z,5.10
2022-10-13T08:52:58.537Z,4.10
2022-10-13T08:53:58.571Z,3.90
2022-10-13T08:54:58.548Z,4.30
2022-10-13T08:55:58.497Z,4.60
2022-10-13T08:56:58.505Z,4.20
2022-10-13T08:57:58.478Z,4.10
2022-10-13T08:58:58.457Z,4.50
2022-10-13T08:59:58.597Z,4.70
2022-10-13T09:00:58.438Z,4.10
2022-10-13T09:01:58.560Z,3.50
2022-10-13T09:02:58.403Z,4.20
2022-10-13T09:03:58.409Z,4.10
2022-10-13T09:04:58.391Z,3.70
2022-10-13T09:05:58.555Z,3.50
2022-10-13T09:06:58.355Z,4.20
2022-10-13T09:07:58.348Z,5.40
2022-10-13T09:08:58.325Z,5.20
2022-10-13T09:09:58.305Z,4.30
2022-10-13T09:10:58.294Z,3.90
2022-10-13T09:11:58.314Z,4.60
2022-10-13T09:12:58.264Z,4.60
2022-10-13T09:13:58.253Z,4.30
2022-10-13T09:14:58.245Z,5.60
2022-10-13T09:15:58.226Z,3.70
2022-10-13T09:16:58.244Z,3.60
2022-10-13T09:17:58.215Z,4.70
2022-10-13T09:18:58.244Z,6.40
2022-10-13T09:19:58.173Z,4.50
2022-10-13T09:20:58.174Z,7.90
2022-10-13T09:21:58.153Z,4.30
2022-10-13T09:22:58.146Z,5.50
2022-10-13T09:23:58.122Z,5.20
2022-10-13T09:24:58.243Z,3.20
2022-10-13T09:25:58.094Z,3.70
2022-10-13T09:26:58.095Z,5.40
2022-10-13T09:27:58.072Z,5.30
2022-10-13T09:28:58.153Z,4.40
2022-10-13T09:29:58.045Z,4.70
2022-10-13T09:30:58.063Z,3.90
2022-10-13T09:31:58.019Z,5.60
2022-10-13T09:32:58.021Z,4.20
2022-10-13T09:33:58.015Z,4.10
2022-10-13T09:34:57.981Z,3.50
2022-10-13T09:35:57.961Z,3.70
2022-10-13T09:36:58.002Z,4.20
2022-10-13T09:37:57.938Z,4.80
2022-10-13T09:38:57.934Z,4.00
2022-10-13T09:39:57.911Z,5.30
2022-10-13T09:40:57.901Z,7.40
2022-10-13T09:41:57.882Z,3.60
2022-10-13T09:42:57.948Z,5.00
2022-10-13T09:43:57.861Z,3.80
2022-10-13T09:44:57.849Z,3.70
2022-10-13T09:45:57.850Z,5.10
2022-10-13T09:46:57.831Z,4.60
2022-10-13T09:47:57.834Z,4.10
2022-10-13T09:48:57.871Z,5.00
2022-10-13T09:49:57.798Z,4.10
2022-10-13T09:50:57.781Z,3.70
2022-10-13T09:51:57.761Z,3.70
2022-10-13T09:52:57.751Z,3.80
2022-10-13T09:53:57.729Z,2.60
2022-10-13T09:54:57.798Z,3.70
2022-10-13T09:55:57.699Z,5.70
2022-10-13T09:56:57.686Z,3.70
2022-10-13T09:57:57.732Z,4.30
2022-10-13T09:58:57.660Z,3.60
2022-10-13T09:59:57.707Z,4.00
2022-10-13T10:00:57.748Z,3.80
2022-10-13T10:01:57.625Z,4.60
2022-10-13T10:02:57.608Z,4.10
2022-10-13T10:03:57.713Z,4.80
2022-10-13T10:04:57.588Z,3.20
2022-10-13T10:05:57.644Z,3.70
2022-10-13T10:06:57.730Z,5.20
2022-10-13T10:07:57.548Z,4.40
2022-10-13T10:09:03.243Z,4.70
2022-10-13T10:09:58.535Z,5.10
2022-10-13T10:10:57.510Z,5.20
2022-10-13T10:11:57.500Z,3.10
2022-10-13T10:12:57.512Z,4.30
2022-10-13T10:13:57.458Z,4.70
2022-10-13T10:14:57.514Z,4.00
2022-10-13T10:17:06.626Z,3.50
2022-10-13T10:18:06.645Z,4.10
2022-10-13T10:19:06.594Z,4.50
2022-10-13T10:20:06.905Z,4.20
2022-10-13T10:21:06.565Z,4.40
2022-10-13T10:22:06.565Z,4.10
2022-10-13T10:23:06.578Z,4.60
2022-10-13T10:24:06.545Z,4.40
2022-10-13T10:25:06.516Z,4.20
2022-10-13T10:26:06.635Z,3.40
2022-10-13T10:27:06.534Z,3.60
2022-10-13T10:28:06.478Z,3.30
2022-10-13T10:29:06.456Z,3.10
2022-10-13T10:30:06.471Z,3.60
2022-10-13T10:31:06.444Z,3.40
2022-10-13T10:32:06.522Z,4.30
2022-10-13T10:33:06.417Z,4.40
2022-10-13T10:34:06.405Z,4.80
2022-10-13T10:35:06.397Z,3.40
2022-10-13T10:36:06.386Z,4.60
2022-10-13T10:37:06.355Z,3.70
2022-10-13T10:38:06.554Z,3.20
2022-10-13T10:39:06.336Z,3.30
2022-10-13T10:40:06.422Z,2.80
2022-10-13T10:41:06.348Z,3.60
2022-10-13T10:42:06.313Z,3.60
2022-10-13T10:43:06.293Z,4.60
2022-10-13T10:44:06.354Z,4.00
2022-10-13T10:45:06.259Z,4.10
2022-10-13T10:46:06.252Z,3.80
2022-10-13T10:47:06.233Z,2.40
2022-10-13T10:48:06.222Z,3.40
2022-10-13T10:49:06.216Z,3.20
2022-10-13T10:50:07.051Z,2.80
2022-10-13T10:51:06.194Z,3.30
2022-10-13T10:52:06.169Z,3.00
2022-10-13T10:53:06.151Z,4.40
2022-10-13T10:54:06.150Z,3.90
2022-10-13T10:55:06.131Z,3.90
2022-10-13T10:56:06.581Z,4.00
2022-10-13T10:57:06.104Z,4.30
2022-10-13T10:58:06.090Z,5.10
2022-10-13T10:59:06.080Z,3.70
2022-10-13T11:00:06.078Z,3.10
2022-10-13T11:01:06.060Z,3.60
2022-10-13T11:02:06.072Z,3.60
2022-10-13T11:03:06.020Z,3.20
2022-10-13T11:04:06.020Z,3.70
2022-10-13T11:05:06.549Z,3.60
2022-10-13T11:06:05.997Z,3.90
2022-10-13T11:07:06.032Z,2.80
2022-10-13T11:08:06.038Z,3.70
2022-10-13T11:09:05.952Z,3.30
2022-10-13T11:10:06.899Z,3.40
2022-10-13T11:11:05.920Z,2.90
2022-10-13T11:12:05.920Z,2.80
2022-10-13T11:13:05.987Z,3.20
2022-10-13T11:14:05.911Z,3.20
2022-10-13T11:15:05.877Z,3.60
2022-10-13T11:16:05.874Z,2.30
2022-10-13T11:17:05.848Z,3.30
2022-10-13T11:18:05.829Z,4.80
2022-10-13T11:19:06.146Z,3.60
2022-10-13T11:20:05.807Z,3.30
2022-10-13T11:21:05.803Z,3.10
2022-10-13T11:22:05.787Z,3.50
2022-10-13T11:23:05.770Z,3.30
2022-10-13T11:24:05.750Z,3.90
2022-10-13T11:25:05.771Z,3.80
2022-10-13T11:26:05.729Z,3.00
2022-10-13T11:27:05.778Z,3.50
2022-10-13T11:28:05.710Z,4.30
2022-10-13T11:29:05.702Z,3.50
2022-10-13T11:30:05.678Z,3.10
2022-10-13T11:31:05.663Z,2.80
2022-10-13T11:32:05.659Z,3.50
2022-10-13T11:33:07.530Z,2.70
2022-10-13T11:34:05.629Z,3.10
2022-10-13T11:35:05.751Z,2.40
2022-10-13T11:36:05.609Z,2.60
2022-10-13T11:37:05.608Z,2.40
2022-10-13T11:38:08.042Z,4.60
2022-10-13T11:39:05.609Z,3.30
2022-10-13T11:40:05.551Z,3.00
2022-10-13T11:41:05.537Z,4.20
2022-10-13T11:42:05.528Z,2.80
2022-10-13T11:43:08.248Z,3.00
2022-10-13T11:44:05.527Z,4.00
2022-10-13T11:45:05.508Z,3.30
2022-10-13T11:46:05.546Z,3.00
2022-10-13T11:47:05.451Z,2.30
2022-10-13T11:48:05.507Z,3.10
2022-10-13T11:49:05.438Z,2.80
2022-10-13T11:50:05.425Z,4.40
2022-10-13T11:51:05.397Z,2.10
2022-10-13T11:52:05.437Z,2.70
2022-10-13T11:53:05.379Z,3.40
2022-10-13T11:54:05.366Z,2.60
2022-10-13T11:55:05.355Z,2.60
2022-10-13T11:56:05.406Z,3.30
2022-10-13T11:57:05.326Z,2.90
2022-10-13T11:58:05.317Z,3.20
2022-10-13T11:59:05.296Z,3.50
2022-10-13T12:00:05.287Z,2.30
2022-10-13T12:01:05.269Z,2.50
2022-10-13T12:02:09.507Z,3.50
2022-10-13T12:03:05.264Z,2.40
2022-10-13T12:04:05.236Z,2.20
2022-10-13T12:05:05.229Z,2.70
2022-10-13T12:06:05.213Z,3.40
2022-10-13T12:07:05.476Z,2.80
2022-10-13T12:08:05.196Z,2.40
2022-10-13T12:09:05.175Z,3.30
2022-10-13T12:10:05.176Z,2.60
2022-10-13T12:11:05.146Z,3.40
2022-10-13T12:12:05.132Z,2.70
2022-10-13T12:13:05.210Z,2.70
2022-10-13T12:14:05.117Z,3.10
2022-10-13T12:15:07.002Z,2.50
2022-10-13T12:16:05.089Z,3.00
2022-10-13T12:17:05.068Z,4.00
2022-10-13T12:18:05.063Z,2.40
2022-10-13T12:19:05.133Z,3.10
2022-10-13T12:20:05.034Z,2.90
2022-10-13T12:21:05.014Z,3.20
2022-10-13T12:22:05.005Z,2.80
2022-10-13T12:23:05.001Z,2.30
2022-10-13T12:24:04.975Z,2.00
2022-10-13T12:25:05.090Z,3.50
2022-10-13T12:26:04.954Z,3.20
2022-10-13T12:27:04.982Z,3.60
2022-10-13T12:28:04.923Z,2.70
2022-10-13T12:29:04.915Z,3.50
2022-10-13T12:30:04.901Z,2.20
2022-10-13T12:31:04.924Z,2.20
2022-10-13T12:32:04.909Z,2.20
2022-10-13T12:33:04.857Z,2.70
2022-10-13T12:34:04.846Z,2.90
2022-10-13T12:35:04.824Z,2.50
2022-10-13T12:36:04.825Z,3.10
2022-10-13T12:37:04.880Z,2.30
2022-10-13T12:38:04.794Z,3.10
2022-10-13T12:39:04.774Z,3.60
2022-10-13T12:40:04.803Z,2.70
2022-10-13T12:41:04.753Z,3.40
2022-10-13T12:42:04.744Z,3.00
2022-10-13T12:43:04.770Z,2.40
2022-10-13T12:44:06.707Z,2.40
2022-10-13T12:45:04.693Z,3.60
2022-10-13T12:46:04.684Z,3.30
2022-10-13T12:47:04.678Z,1.70
2022-10-13T12:48:04.663Z,2.40
2022-10-13T12:49:04.922Z,3.00
2022-10-13T12:50:04.772Z,2.30
2022-10-13T12:51:04.622Z,2.30
2022-10-13T12:52:04.678Z,2.70
2022-10-13T12:53:04.589Z,3.00
2022-10-13T12:54:04.603Z,3.50
2022-10-13T12:55:04.862Z,2.20
2022-10-13T12:56:04.565Z,3.00
2022-10-13T12:57:04.741Z,2.10
2022-10-13T12:58:04.542Z,3.10
2022-10-13T12:59:04.525Z,1.70
2022-10-13T13:00:04.644Z,2.10
2022-10-13T13:01:04.520Z,2.60
2022-10-13T13:02:04.488Z,2.00
2022-10-13T13:03:04.508Z,2.90
2022-10-13T13:04:04.462Z,2.50
2022-10-13T13:05:04.440Z,2.00
2022-10-13T13:06:04.432Z,2.70
2022-10-13T13:07:04.411Z,4.10
2022-10-13T13:08:04.409Z,2.70
2022-10-13T13:09:04.572Z,2.60
2022-10-13T13:10:04.461Z,6.00
2022-10-13T13:11:04.369Z,2.60
2022-10-13T13:12:04.360Z,2.40
2022-10-13T13:13:04.332Z,3.10
2022-10-13T13:14:04.332Z,3.10
2022-10-13T13:15:04.370Z,1.80
2022-10-13T13:16:04.320Z,4.10
2022-10-13T13:17:04.290Z,3.70
2022-10-13T13:18:04.280Z,2.20
2022-10-13T13:19:04.273Z,2.70
2022-10-13T13:20:04.309Z,3.90
2022-10-13T13:21:04.280Z,2.60
2022-10-13T13:22:04.231Z,2.10
2022-10-13T13:23:04.228Z,3.20
2022-10-13T13:24:15.858Z,2.80
2022-10-13T13:25:05.189Z,2.70
2022-10-13T13:26:04.194Z,2.00
2022-10-13T13:27:04.209Z,2.50
2022-10-13T13:28:04.154Z,2.20
2022-10-13T13:29:04.138Z,2.40
2022-10-13T13:30:04.191Z,1.80
2022-10-13T13:31:04.128Z,2.50
2022-10-13T13:32:04.098Z,2.40
2022-10-13T13:33:04.202Z,2.90
2022-10-13T13:34:04.076Z,2.90
2022-10-13T13:35:04.055Z,2.50
2022-10-13T13:36:04.047Z,3.00
2022-10-13T13:37:04.029Z,3.90
2022-10-13T13:38:04.036Z,2.90
2022-10-13T13:39:04.039Z,3.20
2022-10-13T13:40:04.001Z,2.70
2022-10-13T13:41:04.202Z,2.10
2022-10-13T13:42:03.989Z,2.40
2022-10-13T13:43:03.965Z,2.20
2022-10-13T13:44:03.968Z,1.90
2022-10-13T13:45:03.961Z,3.10
2022-10-13T13:46:03.927Z,2.50
2022-10-13T13:47:03.957Z,2.20
2022-10-13T13:48:03.900Z,3.20
2022-10-13T13:49:03.887Z,2.60
2022-10-13T13:50:03.884Z,3.10
2022-10-13T13:51:03.857Z,3.00
2022-10-13T13:52:03.845Z,3.10
2022-10-13T13:53:03.874Z,2.60
2022-10-13T13:54:03.806Z,4.00
2022-10-13T13:55:03.803Z,3.10
2022-10-13T13:56:03.801Z,3.20
2022-10-13T13:57:03.978Z,3.50
2022-10-13T13:58:03.770Z,4.50
2022-10-13T13:59:03.757Z,3.10
2022-10-13T14:00:03.737Z,4.10
2022-10-13T14:01:03.726Z,3.80
2022-10-13T14:02:03.729Z,5.30
2022-10-13T14:03:03.746Z,3.40
2022-10-13T14:04:03.688Z,3.70
2022-10-13T14:05:03.791Z,2.60
2022-10-13T14:06:03.655Z,3.80
2022-10-13T14:07:03.696Z,3.30
2022-10-13T14:08:03.641Z,3.20
2022-10-13T14:09:03.856Z,2.60
2022-10-13T14:10:03.614Z,3.30
2022-10-13T14:11:03.622Z,2.70
2022-10-13T14:12:03.576Z,2.90
2022-10-13T14:13:03.576Z,2.70
2022-10-13T14:14:03.556Z,2.70
2022-10-13T14:15:03.610Z,4.30
2022-10-13T14:16:03.526Z,2.40
2022-10-13T14:17:03.536Z,3.20
2022-10-13T14:18:03.512Z,2.60
2022-10-13T14:19:03.493Z,3.10
2022-10-13T14:20:03.486Z,3.90
2022-10-13T14:21:03.525Z,2.40
2022-10-13T14:22:08.477Z,2.60
2022-10-13T14:23:04.448Z,2.30
2022-10-13T14:24:03.426Z,2.70
2022-10-13T14:25:03.443Z,3.40
2022-10-13T14:26:03.403Z,3.20
2022-10-13T14:27:03.435Z,2.60
2022-10-13T14:28:03.375Z,2.70
2022-10-13T14:29:03.368Z,4.10
2022-10-13T14:30:03.353Z,3.80
2022-10-13T14:31:03.350Z,1.90
2022-10-13T14:32:03.322Z,2.30
2022-10-13T14:33:03.384Z,2.40
2022-10-13T14:34:03.302Z,3.70
2022-10-13T14:35:03.293Z,3.10
2022-10-13T14:36:03.275Z,2.80
2022-10-13T14:37:03.265Z,3.20
2022-10-13T14:38:03.250Z,2.60
2022-10-13T14:39:03.310Z,2.50
2022-10-13T14:40:03.222Z,4.30
2022-10-13T14:41:03.214Z,3.10
2022-10-13T14:42:03.202Z,2.40
2022-10-13T14:43:03.182Z,3.10
2022-10-13T14:44:03.163Z,2.10
2022-10-13T14:45:03.193Z,2.40
2022-10-13T14:46:03.144Z,4.50
2022-10-13T14:47:03.184Z,2.70
2022-10-13T14:48:03.117Z,2.70
2022-10-13T14:49:03.116Z,2.70
2022-10-13T14:50:03.093Z,3.50
2022-10-13T14:51:03.085Z,2.80
2022-10-13T14:52:03.069Z,4.20
2022-10-13T14:53:03.128Z,2.50
2022-10-13T14:54:03.052Z,4.70
2022-10-13T14:55:03.030Z,3.80
2022-10-13T14:56:03.021Z,3.50
2022-10-13T14:57:03.021Z,2.40
2022-10-13T14:58:02.995Z,2.70
2022-10-13T14:59:03.330Z,2.50
2022-10-13T15:00:02.960Z,4.20
2022-10-13T15:01:03.013Z,3.60
2022-10-13T15:02:02.939Z,2.00
2022-10-13T15:03:02.947Z,2.90
2022-10-13T15:04:02.910Z,2.20
2022-10-13T15:05:02.942Z,2.10
2022-10-13T15:06:02.909Z,4.30
2022-10-13T15:07:02.880Z,3.50
2022-10-13T15:08:02.967Z,2.20
2022-10-13T15:09:02.878Z,2.60
2022-10-13T15:10:07.214Z,2.00
2022-10-13T15:11:02.829Z,2.70
2022-10-13T15:12:02.800Z,2.90
2022-10-13T15:13:02.806Z,3.20
2022-10-13T15:14:02.778Z,3.00
2022-10-13T15:15:02.770Z,2.10
2022-10-13T15:16:02.800Z,2.10
2022-10-13T15:17:02.769Z,2.30
2022-10-13T15:18:02.729Z,2.80
2022-10-13T15:19:02.717Z,3.60
2022-10-13T15:20:02.704Z,4.00
2022-10-13T15:21:02.697Z,3.10
2022-10-13T15:22:02.732Z,6.10
2022-10-13T15:23:02.668Z,6.20
2022-10-13T15:24:02.649Z,7.70
2022-10-13T15:25:02.647Z,7.20
2022-10-13T15:26:02.634Z,13.20
2022-10-13T15:27:02.618Z,21.50
2022-10-13T15:28:04.197Z,24.00
2022-10-13T15:29:02.589Z,11.10
2022-10-13T15:30:02.576Z,7.40
2022-10-13T15:31:02.566Z,4.40
2022-10-13T15:32:02.546Z,3.80
2022-10-13T15:33:02.536Z,2.50
2022-10-13T15:34:02.707Z,2.70
2022-10-13T15:35:02.546Z,2.50
2022-10-13T15:36:02.496Z,2.60
2022-10-13T15:37:02.492Z,2.90
2022-10-13T15:38:02.476Z,2.10
2022-10-13T15:39:02.457Z,2.40
2022-10-13T15:40:02.477Z,3.20
2022-10-13T15:41:02.450Z,2.50
2022-10-13T15:42:02.429Z,3.00
2022-10-13T15:43:02.406Z,1.70
2022-10-13T15:44:02.391Z,3.20
2022-10-13T15:45:10.061Z,2.00
2022-10-13T15:46:03.417Z,2.10
2022-10-13T15:47:08.256Z,2.10
2022-10-13T15:48:03.334Z,2.10
2022-10-13T15:49:02.344Z,2.60
2022-10-13T15:50:02.319Z,4.30
2022-10-13T15:51:02.305Z,3.10
2022-10-13T15:52:02.369Z,3.20
2022-10-13T15:53:02.295Z,2.90
2022-10-13T15:54:02.259Z,2.90
2022-10-13T15:55:02.263Z,3.50
2022-10-13T15:56:02.238Z,3.20
2022-10-13T15:57:02.298Z,2.00
2022-10-13T15:58:02.211Z,3.30
2022-10-13T15:59:02.203Z,3.20
2022-10-13T16:00:02.185Z,2.20
2022-10-13T16:01:02.234Z,3.90
2022-10-13T16:02:02.159Z,2.30
2022-10-13T16:03:02.172Z,2.50
2022-10-13T16:04:02.122Z,3.30
2022-10-13T16:05:02.121Z,2.50
2022-10-13T16:06:02.114Z,3.40
2022-10-13T16:07:02.164Z,2.50
2022-10-13T16:08:02.074Z,3.30
2022-10-13T16:09:02.065Z,3.20
2022-10-13T16:10:02.094Z,3.70
2022-10-13T16:11:02.044Z,2.70
2022-10-13T16:12:02.031Z,3.20
2022-10-13T16:13:02.053Z,2.30
2022-10-13T16:14:02.000Z,3.80
2022-10-13T16:15:01.991Z,4.70
2022-10-13T16:16:08.993Z,3.30
2022-10-13T16:17:02.653Z,4.30
2022-10-13T16:18:01.961Z,4.20
2022-10-13T16:19:02.010Z,4.00
2022-10-13T16:20:01.923Z,3.40
2022-10-13T16:21:01.940Z,3.10
2022-10-13T16:22:01.899Z,2.90
2022-10-13T16:23:01.930Z,3.00
2022-10-13T16:24:01.870Z,3.80
2022-10-13T16:25:01.863Z,3.00
2022-10-13T16:26:01.870Z,4.30
2022-10-13T16:27:01.835Z,3.40
2022-10-13T16:28:01.840Z,4.70
2022-10-13T16:29:01.898Z,4.60
2022-10-13T16:30:01.817Z,3.20
2022-10-13T16:31:01.780Z,3.90
2022-10-13T16:32:01.774Z,4.50
2022-10-13T16:33:01.765Z,3.40
2022-10-13T16:34:01.738Z,3.50
2022-10-13T16:35:01.792Z,3.00
2022-10-13T16:36:01.727Z,3.30
2022-10-13T16:37:01.708Z,3.00
2022-10-13T16:38:01.720Z,3.10
2022-10-13T16:39:01.678Z,2.70
2022-10-13T16:40:01.665Z,2.70
2022-10-13T16:41:01.828Z,2.30
2022-10-13T16:42:01.646Z,4.20
2022-10-13T16:43:01.637Z,2.30
2022-10-13T16:44:01.614Z,3.50
2022-10-13T16:45:01.597Z,2.30
2022-10-13T16:46:01.595Z,3.20
2022-10-13T16:47:01.687Z,1.90
2022-10-13T16:48:01.570Z,3.20
2022-10-13T16:49:01.551Z,4.50
2022-10-13T16:50:01.535Z,2.90
2022-10-13T16:51:01.530Z,4.50
2022-10-13T16:52:01.515Z,2.40
2022-10-13T16:53:01.578Z,2.40
2022-10-13T16:54:04.235Z,2.90
2022-10-13T16:55:01.487Z,4.20
2022-10-13T16:56:01.456Z,3.80
2022-10-13T16:57:01.457Z,2.70
2022-10-13T16:58:01.464Z,2.80
2022-10-13T16:59:01.467Z,3.40
2022-10-13T17:00:01.407Z,4.60
2022-10-13T17:01:01.447Z,3.50
2022-10-13T17:02:01.385Z,3.50
2022-10-13T17:03:01.375Z,2.70
2022-10-13T17:04:01.369Z,3.20
2022-10-13T17:05:01.356Z,3.00
2022-10-13T17:06:01.324Z,3.90
2022-10-13T17:07:01.330Z,4.00
2022-10-13T17:08:01.307Z,2.10
2022-10-13T17:09:01.294Z,3.80
2022-10-13T17:10:01.313Z,4.20
2022-10-13T17:11:01.271Z,4.80
2022-10-13T17:12:01.255Z,3.20
2022-10-13T17:13:01.243Z,3.00
2022-10-13T17:14:01.236Z,3.20
2022-10-13T17:15:01.224Z,3.10
2022-10-13T17:16:01.242Z,3.90
2022-10-13T17:17:01.184Z,3.20
2022-10-13T17:18:01.172Z,3.40
2022-10-13T17:19:01.160Z,2.10
2022-10-13T17:20:01.155Z,2.90